createdAt,value
2019-01-20T00:02:09.158Z,100524.48
2019-01-20T00:04:36.947Z,100517.06
2019-01-20T00:07:04.833Z,100520.56
2019-01-20T00:09:32.612Z,100521.30
2019-01-20T00:12:00.324Z,100520.20
2019-01-20T00:14:28.106Z,100522.28
2019-01-20T00:16:55.854Z,100528.81
2019-01-20T00:19:23.657Z,100523.95
2019-01-20T00:21:51.515Z,100521.59
2019-01-20T00:24:19.346Z,100523.88
2019-01-20T00:26:47.104Z,100523.41
2019-01-20T00:29:14.891Z,100523.31
2019-01-20T00:31:42.643Z,100520.08
2019-01-20T00:34:18.089Z,100528.95
2019-01-20T00:36:52.721Z,100522.98
2019-01-20T00:39:20.475Z,100529.75
2019-01-20T00:41:53.449Z,100533.37
2019-01-20T00:44:26.080Z,100519.62
2019-01-20T00:46:53.815Z,100521.39
2019-01-20T00:49:21.623Z,100525.87
2019-01-20T00:51:49.385Z,100521.66
2019-01-20T00:54:17.270Z,100519.02
2019-01-20T00:56:45.009Z,100518.27
2019-01-20T00:59:12.801Z,100511.70
2019-01-20T01:01:40.573Z,100505.58
2019-01-20T01:04:08.363Z,100515.41
2019-01-20T01:06:36.140Z,100517.09
2019-01-20T01:09:07.416Z,100516.38
2019-01-20T01:11:35.243Z,100521.06
2019-01-20T01:14:03.597Z,100515.35
2019-01-20T01:16:47.087Z,100514.54
2019-01-20T01:19:14.978Z,100513.70
2019-01-20T01:21:50.089Z,100504.09
2019-01-20T01:24:25.413Z,100509.22
2019-01-20T01:27:02.700Z,100509.20
2019-01-20T01:29:43.688Z,100507.19
2019-01-20T01:32:11.551Z,100505.77
2019-01-20T01:34:39.298Z,100508.31
2019-01-20T01:37:07.148Z,100509.75
2019-01-20T01:39:34.864Z,100509.16
2019-01-20T01:42:03.135Z,100508.91
2019-01-20T01:44:30.896Z,100507.38
2019-01-20T01:46:58.652Z,100509.02
2019-01-20T01:49:26.399Z,100511.20
2019-01-20T01:51:54.152Z,100509.64
2019-01-20T01:54:21.912Z,100507.72
2019-01-20T01:56:49.742Z,100504.03
2019-01-20T01:59:17.453Z,100513.05
2019-01-20T02:01:46.514Z,100510.34
2019-01-20T02:04:14.233Z,100498.48
2019-01-20T02:06:41.994Z,100500.41
2019-01-20T02:09:09.736Z,100496.97
2019-01-20T02:11:37.528Z,100500.06
2019-01-20T02:14:05.386Z,100506.59
2019-01-20T02:16:33.138Z,100498.04
2019-01-20T02:19:00.904Z,100498.91
2019-01-20T02:21:28.662Z,100499.08
2019-01-20T02:23:56.440Z,100492.97
2019-01-20T02:26:24.219Z,100491.91
2019-01-20T02:28:51.966Z,100499.01
2019-01-20T02:31:19.726Z,100495.91
2019-01-20T02:33:47.489Z,100497.48
2019-01-20T02:36:15.274Z,100494.80
2019-01-20T02:38:43.017Z,100490.64
2019-01-20T02:41:10.814Z,100495.91
2019-01-20T02:43:38.540Z,100499.05
2019-01-20T02:46:06.318Z,100495.69
2019-01-20T02:48:34.102Z,100501.30
2019-01-20T02:51:01.842Z,100496.25
2019-01-20T02:53:29.689Z,100495.78
2019-01-20T02:55:57.446Z,100501.52
2019-01-20T02:58:25.243Z,100511.58
2019-01-20T03:00:53.031Z,100511.11
2019-01-20T03:03:20.790Z,100508.01
2019-01-20T03:05:48.542Z,100506.22
2019-01-20T03:08:16.303Z,100504.53
2019-01-20T03:10:44.063Z,100505.97
2019-01-20T03:13:11.820Z,100501.64
2019-01-20T03:15:39.926Z,100497.31
2019-01-20T03:18:07.685Z,100497.10
2019-01-20T03:20:35.455Z,100495.31
2019-01-20T03:23:03.221Z,100492.37
2019-01-20T03:25:30.949Z,100490.67
2019-01-20T03:27:58.731Z,100487.45
2019-01-20T03:30:26.489Z,100489.83
2019-01-20T03:32:54.273Z,100487.80
2019-01-20T03:35:25.744Z,100487.42
2019-01-20T03:37:53.615Z,100487.89
2019-01-20T03:40:21.701Z,100478.58
2019-01-20T03:42:49.758Z,100485.16
2019-01-20T03:45:18.371Z,100487.11
2019-01-20T03:47:46.121Z,100488.86
2019-01-20T03:50:15.098Z,100483.72
2019-01-20T03:52:42.940Z,100489.02
2019-01-20T03:55:12.852Z,100480.65
2019-01-20T03:57:40.610Z,100481.25
2019-01-20T04:00:15.850Z,100479.70
2019-01-20T04:02:44.485Z,100476.72
2019-01-20T04:05:12.409Z,100476.59
2019-01-20T04:07:40.223Z,100479.55
2019-01-20T04:10:11.609Z,100477.64
2019-01-20T04:12:39.406Z,100482.92
2019-01-20T04:15:07.662Z,100474.91
2019-01-20T04:17:35.375Z,100477.55
2019-01-20T04:20:04.036Z,100483.05
2019-01-20T04:22:31.764Z,100481.13
2019-01-20T04:24:59.546Z,100483.30
2019-01-20T04:27:27.302Z,100481.14
2019-01-20T04:29:55.058Z,100484.97
2019-01-20T04:32:22.830Z,100478.02
2019-01-20T04:34:50.631Z,100481.50
2019-01-20T04:37:18.375Z,100480.30
2019-01-20T04:39:46.128Z,100478.61
2019-01-20T04:42:13.881Z,100482.33
2019-01-20T04:44:41.812Z,100476.45
2019-01-20T04:47:09.570Z,100481.72
2019-01-20T04:49:37.794Z,100485.54
2019-01-20T04:52:05.532Z,100482.19
2019-01-20T04:54:33.276Z,100482.06
2019-01-20T04:57:01.003Z,100484.19
2019-01-20T04:59:28.927Z,100487.20
2019-01-20T05:01:56.829Z,100484.22
2019-01-20T05:04:24.604Z,100492.38
2019-01-20T05:06:52.501Z,100491.66
2019-01-20T05:09:20.269Z,100495.47
2019-01-20T05:11:48.051Z,100491.30
2019-01-20T05:14:15.853Z,100503.47
2019-01-20T05:16:43.781Z,100499.64
2019-01-20T05:19:11.551Z,100502.63
2019-01-20T05:21:39.277Z,100496.08
2019-01-20T05:24:07.059Z,100500.49
2019-01-20T05:26:34.801Z,100505.62
2019-01-20T05:29:02.539Z,100503.95
2019-01-20T05:31:30.285Z,100508.48
2019-01-20T05:33:58.013Z,100503.94
2019-01-20T05:36:25.953Z,100496.42
2019-01-20T05:38:53.703Z,100501.79
2019-01-20T05:41:21.432Z,100498.94
2019-01-20T05:43:49.174Z,100498.94
2019-01-20T05:46:16.905Z,100504.32
2019-01-20T05:48:44.642Z,100498.47
2019-01-20T05:51:12.396Z,100498.46
2019-01-20T05:53:40.138Z,100497.14
2019-01-20T05:56:07.902Z,100494.16
2019-01-20T05:58:36.097Z,100503.00
2019-01-20T06:01:03.869Z,100506.61
2019-01-20T06:03:31.906Z,100499.66
2019-01-20T06:05:59.692Z,100497.76
2019-01-20T06:08:27.454Z,100501.09
2019-01-20T06:10:55.194Z,100498.57
2019-01-20T06:13:22.962Z,100508.52
2019-01-20T06:15:50.707Z,100502.53
2019-01-20T06:18:18.482Z,100503.34
2019-01-20T06:20:46.231Z,100511.84
2019-01-20T06:23:14.009Z,100509.94
2019-01-20T06:25:41.744Z,100512.56
2019-01-20T06:28:09.492Z,100511.98
2019-01-20T06:30:37.228Z,100508.27
2019-01-20T06:33:04.976Z,100513.27
2019-01-20T06:35:32.740Z,100517.46
2019-01-20T06:38:00.492Z,100510.86
2019-01-20T06:40:28.425Z,100516.38
2019-01-20T06:43:01.864Z,100513.19
2019-01-20T06:45:25.866Z,100523.08
2019-01-20T06:47:53.631Z,100528.09
2019-01-20T06:50:21.840Z,100524.88
2019-01-20T06:52:49.607Z,100525.45
2019-01-20T06:55:17.366Z,100528.46
2019-01-20T06:57:47.044Z,100533.13
2019-01-20T07:00:24.496Z,100538.13
2019-01-20T07:02:52.276Z,100541.23
2019-01-20T07:05:20.207Z,100544.59
2019-01-20T07:07:48.446Z,100543.16
2019-01-20T07:10:16.542Z,100543.27
2019-01-20T07:12:44.491Z,100551.06
2019-01-20T07:15:15.685Z,100557.62
2019-01-20T07:17:53.244Z,100562.05
2019-01-20T07:20:21.323Z,100563.25
2019-01-20T07:22:49.397Z,100565.38
2019-01-20T07:25:21.050Z,100573.50
2019-01-20T07:27:53.581Z,100568.84
2019-01-20T07:30:24.459Z,100569.13
2019-01-20T07:33:02.455Z,100571.84
2019-01-20T07:35:30.689Z,100568.25
2019-01-20T07:37:58.445Z,100570.05
2019-01-20T07:40:32.314Z,100573.84
2019-01-20T07:43:00.129Z,100574.97
2019-01-20T07:45:27.859Z,100572.63
2019-01-20T07:47:55.643Z,100568.31
2019-01-20T07:50:26.654Z,100568.66
2019-01-20T07:52:54.495Z,100574.27
2019-01-20T07:55:22.363Z,100577.02
2019-01-20T07:57:50.230Z,100579.90
2019-01-20T08:00:20.498Z,100587.22
2019-01-20T08:02:48.251Z,100586.97
2019-01-20T08:05:16.810Z,100595.43
2019-01-20T08:07:44.604Z,100590.50
2019-01-20T08:10:16.531Z,100591.16
2019-01-20T08:12:44.448Z,100591.17
2019-01-20T08:15:12.473Z,100595.77
2019-01-20T08:17:43.906Z,100603.89
2019-01-20T08:20:43.242Z,100605.84
2019-01-20T08:23:13.264Z,100609.53
2019-01-20T08:26:20.124Z,100611.36
2019-01-20T08:28:56.136Z,100613.49
2019-01-20T08:31:42.040Z,100612.86
2019-01-20T08:34:14.278Z,100612.59
2019-01-20T08:36:48.371Z,100608.50
2019-01-20T08:39:16.107Z,100610.75
2019-01-20T08:41:59.938Z,100614.50
2019-01-20T08:44:32.520Z,100617.59
2019-01-20T08:47:35.110Z,100614.81
2019-01-20T08:50:09.743Z,100616.47
2019-01-20T08:52:37.545Z,100622.88
2019-01-20T08:55:28.577Z,100625.97
2019-01-20T08:57:56.322Z,100625.42
2019-01-20T09:00:34.460Z,100631.14
2019-01-20T09:03:29.354Z,100638.33
2019-01-20T09:05:59.484Z,100638.88
2019-01-20T09:08:27.434Z,100641.07
2019-01-20T09:10:55.182Z,100636.83
2019-01-20T09:13:23.177Z,100620.31
2019-01-20T09:15:51.227Z,100614.14
2019-01-20T09:18:18.980Z,100617.17
2019-01-20T09:20:46.756Z,100625.02
2019-01-20T09:23:14.570Z,100631.42
2019-01-20T09:25:42.325Z,100638.33
2019-01-20T09:28:10.073Z,100643.72
2019-01-20T09:30:38.163Z,100637.91
2019-01-20T09:33:06.087Z,100642.57
2019-01-20T09:35:34.312Z,100640.28
2019-01-20T09:38:10.882Z,100648.06
2019-01-20T09:41:05.991Z,100645.14
2019-01-20T09:43:46.829Z,100636.84
2019-01-20T09:46:09.267Z,100613.32
2019-01-20T09:48:48.468Z,100623.37
2019-01-20T09:51:16.282Z,100621.88
2019-01-20T09:53:49.678Z,100621.73
2019-01-20T09:56:28.085Z,100632.24
2019-01-20T09:59:00.180Z,100637.59
2019-01-20T10:01:27.934Z,100645.47
2019-01-20T10:03:59.109Z,100647.73
2019-01-20T10:06:30.256Z,100648.45
2019-01-20T10:09:06.557Z,100649.00
2019-01-20T10:11:36.025Z,100654.11
2019-01-20T10:14:07.087Z,100659.34
2019-01-20T10:16:47.989Z,100656.54
2019-01-20T10:19:16.350Z,100662.09
2019-01-20T10:21:46.836Z,100662.94
2019-01-20T10:24:20.783Z,100659.99
2019-01-20T10:26:55.161Z,100665.52
2019-01-20T10:29:23.217Z,100660.75
2019-01-20T10:31:51.316Z,100655.49
2019-01-20T10:34:19.130Z,100657.34
2019-01-20T10:36:49.763Z,100648.38
2019-01-20T10:39:18.122Z,100645.12
2019-01-20T10:44:38.492Z,100654.59
2019-01-20T10:47:09.376Z,100661.10
2019-01-20T10:49:41.690Z,100655.28
2019-01-20T10:52:18.228Z,100650.34
2019-01-20T10:54:55.921Z,100644.99
2019-01-20T10:57:29.475Z,100636.26
2019-01-20T11:00:07.636Z,100643.73
2019-01-20T11:02:47.845Z,100635.30
2019-01-20T11:05:30.710Z,100639.28
2019-01-20T11:08:31.205Z,100648.71
2019-01-20T11:11:26.448Z,100660.69
2019-01-20T11:14:10.467Z,100659.42
2019-01-20T11:16:31.685Z,100670.63
2019-01-20T11:19:28.945Z,100658.23
2019-01-20T11:22:22.073Z,100656.31
2019-01-20T11:25:08.525Z,100659.31
2019-01-20T11:28:08.361Z,100656.67
2019-01-20T11:30:51.028Z,100655.36
2019-01-20T11:34:25.759Z,100652.98
2019-01-20T11:37:27.345Z,100646.87
2019-01-20T11:40:20.463Z,100650.17
2019-01-20T11:46:05.649Z,100651.73
2019-01-20T11:49:34.800Z,100647.23
2019-01-20T11:52:32.106Z,100654.59
2019-01-20T11:55:36.812Z,100646.48
2019-01-20T11:58:34.973Z,100643.82
2019-01-20T12:01:02.800Z,100642.05
2019-01-20T12:03:57.419Z,100649.43
2019-01-20T12:06:30.461Z,100638.66
2019-01-20T12:09:15.832Z,100640.37
2019-01-20T12:11:43.819Z,100635.55
2019-01-20T12:14:11.719Z,100639.45
2019-01-20T12:16:40.649Z,100645.33
2019-01-20T12:19:08.420Z,100654.67
2019-01-20T12:21:36.311Z,100656.94
2019-01-20T12:24:06.541Z,100659.98
2019-01-20T12:26:34.427Z,100665.88
2019-01-20T12:29:02.275Z,100660.87
2019-01-20T12:31:30.166Z,100673.20
2019-01-20T12:33:58.135Z,100668.98
2019-01-20T12:36:26.103Z,100674.23
2019-01-20T12:38:53.951Z,100670.86
2019-01-20T12:41:21.930Z,100664.83
2019-01-20T12:43:49.708Z,100666.77
2019-01-20T12:46:20.496Z,100670.56
2019-01-20T12:48:48.495Z,100669.25
2019-01-20T12:51:16.363Z,100670.83
2019-01-20T12:53:44.320Z,100678.63
2019-01-20T12:56:12.217Z,100672.41
2019-01-20T12:58:40.042Z,100676.36
2019-01-20T13:01:07.929Z,100682.92
2019-01-20T13:03:35.821Z,100673.17
2019-01-20T13:06:03.860Z,100685.94
2019-01-20T13:08:39.133Z,100671.36
2019-01-20T13:11:06.900Z,100680.15
2019-01-20T13:13:34.739Z,100675.35
2019-01-20T13:16:04.109Z,100681.75
2019-01-20T13:18:33.679Z,100680.51
2019-01-20T13:21:01.613Z,100679.88
2019-01-20T13:23:31.682Z,100680.95
2019-01-20T13:26:01.372Z,100688.08
2019-01-20T13:28:30.193Z,100683.70
2019-01-20T13:30:57.900Z,100680.51
2019-01-20T13:33:29.409Z,100682.92
2019-01-20T13:35:57.249Z,100683.55
2019-01-20T13:41:26.357Z,100684.63
2019-01-20T13:43:55.727Z,100689.74
2019-01-20T13:46:55.538Z,100689.22
2019-01-20T13:49:23.293Z,100696.22
2019-01-20T13:51:51.103Z,100691.17
2019-01-20T13:54:18.887Z,100697.70
2019-01-20T13:56:46.693Z,100694.98
2019-01-20T13:59:14.489Z,100703.45
2019-01-20T14:01:42.271Z,100700.56
2019-01-20T14:04:10.099Z,100700.23
2019-01-20T14:06:37.942Z,100703.70
2019-01-20T14:09:07.470Z,100703.66
2019-01-20T14:11:39.934Z,100702.00
2019-01-20T14:14:07.714Z,100697.64
2019-01-20T14:16:35.540Z,100706.12
2019-01-20T14:19:05.152Z,100702.30
2019-01-20T14:21:32.890Z,100698.31
2019-01-20T14:24:00.765Z,100705.84
2019-01-20T14:26:31.106Z,100703.91
2019-01-20T14:28:58.907Z,100708.34
2019-01-20T14:31:26.706Z,100713.95
2019-01-20T14:33:54.505Z,100705.67
2019-01-20T14:36:22.285Z,100709.45
2019-01-20T14:38:50.134Z,100710.21
2019-01-20T14:41:17.939Z,100710.06
2019-01-20T14:44:03.674Z,100710.21
2019-01-20T14:46:38.952Z,100713.66
2019-01-20T14:49:06.776Z,100721.08
2019-01-20T14:51:38.820Z,100715.77
2019-01-20T14:54:06.700Z,100719.82
2019-01-20T14:56:34.542Z,100722.23
2019-01-20T14:59:03.481Z,100720.30
2019-01-20T15:01:31.371Z,100724.19
2019-01-20T15:04:00.080Z,100722.30
2019-01-20T15:06:27.920Z,100729.84
2019-01-20T15:08:55.775Z,100732.71
2019-01-20T15:11:23.577Z,100733.08
2019-01-20T15:14:22.546Z,100734.84
2019-01-20T15:16:50.547Z,100738.20
2019-01-20T15:19:21.946Z,100745.52
2019-01-20T15:21:49.915Z,100749.52
2019-01-20T15:24:17.685Z,100745.27
2019-01-20T15:26:45.447Z,100752.67
2019-01-20T15:29:13.204Z,100758.61
2019-01-20T15:31:40.992Z,100754.48
2019-01-20T15:34:08.814Z,100757.00
2019-01-20T15:36:36.613Z,100756.97
2019-01-20T15:39:07.283Z,100763.31
2019-01-20T15:41:35.073Z,100769.93
2019-01-20T15:44:03.072Z,100774.09
2019-01-20T15:46:30.918Z,100777.69
2019-01-20T15:48:58.735Z,100775.08
2019-01-20T15:51:26.487Z,100773.62
2019-01-20T15:53:54.285Z,100775.55
2019-01-20T15:56:22.079Z,100780.76
2019-01-20T15:58:49.841Z,100781.55
2019-01-20T16:01:17.597Z,100788.86
2019-01-20T16:04:10.555Z,100793.30
2019-01-20T16:06:38.462Z,100803.31
2019-01-20T16:09:08.494Z,100803.32
2019-01-20T16:11:36.357Z,100798.43
2019-01-20T16:14:04.255Z,100801.83
2019-01-20T16:16:32.099Z,100808.13
2019-01-20T16:18:59.995Z,100812.38
2019-01-20T16:21:27.820Z,100819.53
2019-01-20T16:23:55.801Z,100823.45
2019-01-20T16:26:23.630Z,100825.89
2019-01-20T16:28:51.404Z,100829.32
2019-01-20T16:31:19.179Z,100825.48
2019-01-20T16:33:49.852Z,100831.12
2019-01-20T16:36:17.673Z,100833.83
2019-01-20T16:38:45.520Z,100834.56
2019-01-20T16:41:13.380Z,100837.95
2019-01-20T16:43:41.176Z,100834.99
2019-01-20T16:46:08.962Z,100831.84
2019-01-20T16:48:38.602Z,100839.91
2019-01-20T16:51:06.462Z,100837.50
2019-01-20T16:53:34.254Z,100840.63
2019-01-20T16:56:02.053Z,100844.91
2019-01-20T16:58:29.886Z,100844.95
2019-01-20T17:00:57.713Z,100847.97
2019-01-20T17:03:27.774Z,100851.66
2019-01-20T17:05:55.610Z,100852.38
2019-01-20T17:08:23.409Z,100851.19
2019-01-20T17:10:51.210Z,100852.41
2019-01-20T17:13:18.956Z,100860.07
2019-01-20T17:15:46.911Z,100856.23
2019-01-20T17:18:15.543Z,100851.01
2019-01-20T17:20:43.697Z,100854.53
2019-01-20T17:23:11.568Z,100851.11
2019-01-20T17:25:39.360Z,100853.75
2019-01-20T17:28:07.101Z,100850.80
2019-01-20T17:30:35.022Z,100853.25
2019-01-20T17:33:03.401Z,100858.56
2019-01-20T17:35:32.551Z,100863.55
2019-01-20T17:38:00.320Z,100865.67
2019-01-20T17:40:28.841Z,100873.21
2019-01-20T17:42:57.217Z,100878.78
2019-01-20T17:45:31.272Z,100880.92
2019-01-20T17:48:00.225Z,100883.69
2019-01-20T17:50:34.751Z,100880.83
2019-01-20T17:53:44.458Z,100885.73
2019-01-20T17:56:19.030Z,100888.50
2019-01-20T17:59:11.169Z,100891.69
2019-01-20T18:02:03.814Z,100887.26
2019-01-20T18:04:31.814Z,100889.72
2019-01-20T18:06:59.784Z,100896.44
2019-01-20T18:10:04.080Z,100895.45
2019-01-20T18:12:36.658Z,100890.81
2019-01-20T18:15:09.236Z,100897.42
2019-01-20T18:17:39.662Z,100898.73
2019-01-20T18:20:17.552Z,100905.68
2019-01-20T18:22:56.440Z,100912.61
2019-01-20T18:25:31.570Z,100910.48
2019-01-20T18:27:59.555Z,100915.45
2019-01-20T18:30:27.957Z,100920.93
2019-01-20T18:32:58.787Z,100919.75
2019-01-20T18:35:26.842Z,100924.50
2019-01-20T18:38:00.259Z,100928.00
2019-01-20T18:40:34.130Z,100932.58
2019-01-20T18:43:03.523Z,100925.80
2019-01-20T18:45:32.192Z,100931.20
2019-01-20T18:48:02.997Z,100929.66
2019-01-20T18:50:36.402Z,100937.11
2019-01-20T18:53:04.940Z,100931.58
2019-01-20T18:55:33.966Z,100929.44
2019-01-20T18:58:07.807Z,100931.97
2019-01-20T19:00:39.871Z,100935.91
2019-01-20T19:03:07.635Z,100930.02
2019-01-20T19:05:35.435Z,100934.45
2019-01-20T19:08:03.446Z,100936.11
2019-01-20T19:10:31.199Z,100940.92
2019-01-20T19:12:59.196Z,100944.44
2019-01-20T19:15:27.157Z,100950.30
2019-01-20T19:17:55.065Z,100954.52
2019-01-20T19:20:22.921Z,100958.69
2019-01-20T19:22:53.701Z,100965.16
2019-01-20T19:25:21.596Z,100968.06
2019-01-20T19:27:49.471Z,100963.84
2019-01-20T19:30:20.519Z,100966.47
2019-01-20T19:32:50.277Z,100966.97
2019-01-20T19:35:18.209Z,100971.65
2019-01-20T19:37:46.035Z,100972.73
2019-01-20T19:40:13.851Z,100974.98
2019-01-20T19:42:41.731Z,100972.49
2019-01-20T19:45:12.519Z,100972.97
2019-01-20T19:47:40.300Z,100977.41
2019-01-20T19:50:09.143Z,100980.67
2019-01-20T19:52:36.985Z,100982.68
2019-01-20T19:55:09.283Z,100983.53
2019-01-20T19:57:37.353Z,100987.24
2019-01-20T20:00:09.340Z,100978.59
2019-01-20T20:02:37.121Z,100992.63
2019-01-20T20:05:09.638Z,100986.28
2019-01-20T20:07:37.434Z,100994.44
2019-01-20T20:10:07.262Z,101000.28
2019-01-20T20:12:35.070Z,101004.53
2019-01-20T20:15:25.086Z,101001.69
2019-01-20T20:18:05.837Z,101014.38
2019-01-20T20:20:53.273Z,101012.71
2019-01-20T20:23:33.135Z,101012.49
2019-01-20T20:26:20.404Z,101016.72
2019-01-20T20:29:00.390Z,101016.74
2019-01-20T20:31:47.840Z,101023.20
2019-01-20T20:34:28.331Z,101023.92
2019-01-20T20:37:15.562Z,101021.52
2019-01-20T20:39:55.546Z,101026.58
2019-01-20T20:42:43.008Z,101028.73
2019-01-20T20:45:24.790Z,101037.36
2019-01-20T20:48:12.051Z,101036.14
2019-01-20T20:50:55.700Z,101042.63
2019-01-20T20:53:43.495Z,101041.17
2019-01-20T20:56:24.398Z,101041.13
2019-01-20T20:59:12.754Z,101053.81
2019-01-20T21:01:53.455Z,101051.78
2019-01-20T21:04:40.969Z,101042.97
2019-01-20T21:07:29.820Z,101053.52
2019-01-20T21:10:11.616Z,101049.42
2019-01-20T21:13:16.721Z,101049.56
2019-01-20T21:15:57.049Z,101046.19
2019-01-20T21:18:37.347Z,101051.32
2019-01-20T21:21:26.656Z,101048.52
2019-01-20T21:24:07.447Z,101060.14
2019-01-20T21:26:54.712Z,101057.27
2019-01-20T21:29:34.827Z,101052.12
2019-01-20T21:32:22.064Z,101049.07
2019-01-20T21:35:03.044Z,101056.24
2019-01-20T21:37:50.507Z,101061.52
2019-01-20T21:40:31.269Z,101062.68
2019-01-20T21:43:18.497Z,101069.92
2019-01-20T21:46:05.941Z,101061.31
2019-01-20T21:48:46.442Z,101078.53
2019-01-20T21:51:53.283Z,101080.00
2019-01-20T21:54:33.701Z,101082.98
2019-01-20T21:57:21.041Z,101080.81
2019-01-20T22:00:02.964Z,101083.53
2019-01-20T22:02:50.178Z,101087.25
2019-01-20T22:09:20.194Z,101088.72
2019-01-20T22:12:00.251Z,101087.14
2019-01-20T22:14:47.459Z,101093.22
2019-01-20T22:17:27.746Z,101094.38
2019-01-20T22:20:16.719Z,101097.75
2019-01-20T22:22:56.960Z,101094.61
2019-01-20T22:25:44.374Z,101095.66
2019-01-20T22:28:24.669Z,101101.66
2019-01-20T22:31:11.949Z,101099.06
2019-01-20T22:33:52.120Z,101102.86
2019-01-20T22:36:39.367Z,101102.48
2019-01-20T22:39:19.570Z,101110.26
2019-01-20T22:42:07.016Z,101110.78
2019-01-20T22:44:46.930Z,101113.20
2019-01-20T22:47:34.162Z,101111.59
2019-01-20T22:50:14.382Z,101116.41
2019-01-20T22:53:01.701Z,101123.34
2019-01-20T22:55:48.948Z,101124.14
2019-01-20T22:58:36.208Z,101124.14
2019-01-20T23:01:20.119Z,101121.16
2019-01-20T23:04:07.608Z,101118.75
2019-01-20T23:06:49.004Z,101126.77
2019-01-20T23:09:36.364Z,101123.16
2019-01-20T23:12:16.734Z,101125.73
2019-01-20T23:18:11.744Z,101130.03
2019-01-20T23:20:59.154Z,101124.23
2019-01-20T23:23:39.748Z,101133.05
2019-01-20T23:30:32.883Z,101129.38
2019-01-20T23:36:25.451Z,101129.48
2019-01-20T23:39:12.771Z,101134.95
2019-01-20T23:41:53.611Z,101133.41
2019-01-20T23:44:40.851Z,101134.27
2019-01-20T23:47:21.723Z,101131.35
2019-01-20T23:50:09.382Z,101126.31
2019-01-20T23:52:49.607Z,101131.63
2019-01-20T23:55:36.885Z,101129.87
2019-01-20T23:58:24.071Z,101130.14
